createdAt,value
2023-01-30T00:00:53.008Z,79.49
2023-01-30T00:03:19.959Z,79.49
2023-01-30T00:05:46.449Z,79.56
2023-01-30T00:08:12.952Z,79.59
2023-01-30T00:10:39.380Z,79.88
2023-01-30T00:13:05.932Z,79.72
2023-01-30T00:15:32.342Z,79.52
2023-01-30T00:17:58.780Z,79.50
2023-01-30T00:20:25.256Z,79.40
2023-01-30T00:23:00.465Z,79.08
2023-01-30T00:25:27.834Z,79.49
2023-01-30T00:27:54.325Z,78.82
2023-01-30T00:30:20.775Z,78.80
2023-01-30T00:32:47.308Z,78.98
2023-01-30T00:35:13.707Z,79.55
2023-01-30T00:37:40.166Z,79.51
2023-01-30T00:40:06.896Z,79.69
2023-01-30T00:42:52.063Z,79.31
2023-01-30T00:45:36.860Z,79.57
2023-01-30T00:48:03.305Z,79.78
2023-01-30T00:50:42.310Z,79.98
2023-01-30T00:53:12.769Z,79.60
2023-01-30T00:55:39.657Z,79.43
2023-01-30T00:58:06.448Z,80.03
2023-01-30T01:00:33.120Z,79.86
2023-01-30T01:02:59.638Z,80.52
2023-01-30T01:05:26.653Z,80.56
2023-01-30T01:07:53.072Z,81.77
2023-01-30T01:10:19.550Z,81.58
2023-01-30T01:12:46.794Z,81.54
2023-01-30T01:15:13.929Z,81.43
2023-01-30T01:17:41.523Z,81.47
2023-01-30T01:20:08.981Z,81.47
2023-01-30T01:22:35.570Z,81.49
2023-01-30T01:25:02.002Z,81.57
2023-01-30T01:27:29.138Z,81.92
2023-01-30T01:29:55.536Z,81.76
2023-01-30T01:32:22.274Z,81.79
2023-01-30T01:34:48.747Z,81.85
2023-01-30T01:37:15.264Z,81.94
2023-01-30T01:39:59.976Z,81.71
2023-01-30T01:42:35.933Z,82.03
2023-01-30T01:45:13.199Z,81.80
2023-01-30T01:47:42.535Z,81.35
2023-01-30T01:50:16.589Z,81.18
2023-01-30T01:52:43.528Z,81.09
2023-01-30T01:55:09.962Z,80.69
2023-01-30T01:57:47.603Z,80.54
2023-01-30T02:00:17.087Z,80.84
2023-01-30T02:02:49.414Z,80.70
2023-01-30T02:05:16.700Z,80.26
2023-01-30T02:08:06.082Z,80.32
2023-01-30T02:10:47.659Z,80.76
2023-01-30T02:13:14.042Z,80.49
2023-01-30T02:15:42.774Z,80.48
2023-01-30T02:18:18.135Z,80.49
2023-01-30T02:21:22.403Z,80.51
2023-01-30T02:24:16.040Z,80.52
2023-01-30T02:27:03.665Z,80.64
2023-01-30T02:29:55.044Z,80.63
2023-01-30T02:32:46.411Z,80.65
2023-01-30T02:35:32.648Z,80.39
2023-01-30T02:38:22.244Z,80.84
2023-01-30T02:41:07.170Z,81.07
2023-01-30T02:43:44.790Z,80.80
2023-01-30T02:46:15.813Z,80.57
2023-01-30T02:49:06.839Z,80.89
2023-01-30T02:51:35.958Z,80.68
2023-01-30T02:54:02.647Z,80.52
2023-01-30T02:56:29.052Z,80.92
2023-01-30T02:58:59.721Z,81.12
2023-01-30T03:02:08.019Z,81.19
2023-01-30T03:04:53.331Z,81.20
2023-01-30T03:07:38.577Z,80.84
2023-01-30T03:10:37.358Z,81.34
2023-01-30T03:13:38.078Z,80.94
2023-01-30T03:16:40.528Z,81.26
2023-01-30T03:19:12.379Z,81.39
2023-01-30T03:21:44.485Z,81.55
2023-01-30T03:24:11.667Z,81.14
2023-01-30T03:26:45.871Z,81.61
2023-01-30T03:29:12.362Z,81.19
2023-01-30T03:31:38.753Z,81.06
2023-01-30T03:34:05.223Z,81.47
2023-01-30T03:36:31.611Z,81.48
2023-01-30T03:38:59.150Z,81.43
2023-01-30T03:41:25.615Z,81.25
2023-01-30T03:43:52.026Z,81.45
2023-01-30T03:46:18.351Z,81.33
2023-01-30T03:48:44.869Z,81.41
2023-01-30T03:51:11.246Z,81.78
2023-01-30T03:53:37.609Z,81.83
2023-01-30T03:56:04.257Z,81.23
2023-01-30T03:58:30.613Z,81.21
2023-01-30T04:00:59.964Z,81.50
2023-01-30T04:03:26.425Z,81.39
2023-01-30T04:05:52.869Z,81.28
2023-01-30T04:08:19.219Z,81.64
2023-01-30T04:10:45.578Z,82.04
2023-01-30T04:13:11.975Z,81.62
2023-01-30T04:15:38.308Z,81.35
2023-01-30T04:18:05.440Z,81.54
2023-01-30T04:20:31.831Z,81.83
2023-01-30T04:22:58.329Z,81.95
2023-01-30T04:25:24.735Z,81.85
2023-01-30T04:27:51.120Z,81.96
2023-01-30T04:30:17.800Z,81.50
2023-01-30T04:32:44.349Z,81.54
2023-01-30T04:35:10.921Z,82.08
2023-01-30T04:37:37.383Z,82.28
2023-01-30T04:40:04.180Z,81.62
2023-01-30T04:42:30.674Z,81.66
2023-01-30T04:44:57.157Z,81.84
2023-01-30T04:47:23.643Z,82.31
2023-01-30T04:49:49.992Z,81.52
2023-01-30T04:52:16.350Z,82.24
2023-01-30T04:54:42.712Z,82.11
2023-01-30T04:57:09.108Z,82.18
2023-01-30T04:59:35.468Z,82.05
2023-01-30T05:02:01.909Z,81.99
2023-01-30T05:04:28.547Z,81.88
2023-01-30T05:06:54.946Z,82.15
2023-01-30T05:09:21.370Z,82.16
2023-01-30T05:11:47.757Z,82.06
2023-01-30T05:14:14.164Z,82.23
2023-01-30T05:16:40.598Z,82.34
2023-01-30T05:19:06.994Z,81.83
2023-01-30T05:21:33.403Z,81.88
2023-01-30T05:23:59.836Z,81.45
2023-01-30T05:26:26.371Z,81.89
2023-01-30T05:28:56.691Z,81.36
2023-01-30T05:31:23.353Z,81.81
2023-01-30T05:33:51.900Z,82.16
2023-01-30T05:36:19.877Z,81.54
2023-01-30T05:38:46.460Z,81.60
2023-01-30T05:41:14.047Z,81.53
2023-01-30T05:43:40.723Z,82.03
2023-01-30T05:46:10.421Z,81.71
2023-01-30T05:48:37.026Z,82.05
2023-01-30T05:51:03.453Z,82.00
2023-01-30T05:53:34.405Z,82.21
2023-01-30T05:56:03.428Z,82.29
2023-01-30T05:58:30.343Z,82.07
2023-01-30T06:01:04.399Z,82.44
2023-01-30T06:03:30.868Z,82.74
2023-01-30T06:05:57.329Z,82.87
2023-01-30T06:08:23.856Z,83.00
2023-01-30T06:10:50.504Z,83.33
2023-01-30T06:13:17.020Z,83.81
2023-01-30T06:15:43.491Z,83.56
2023-01-30T06:18:12.258Z,84.54
2023-01-30T06:20:38.639Z,84.24
2023-01-30T06:23:05.014Z,84.36
2023-01-30T06:25:31.453Z,84.58
2023-01-30T06:27:57.906Z,84.92
2023-01-30T06:30:24.333Z,85.03
2023-01-30T06:32:51.530Z,84.56
2023-01-30T06:35:18.213Z,84.61
2023-01-30T06:37:45.607Z,83.71
2023-01-30T06:40:12.915Z,83.58
2023-01-30T06:42:39.246Z,83.11
2023-01-30T06:45:06.142Z,82.98
2023-01-30T06:47:32.717Z,82.96
2023-01-30T06:49:59.142Z,83.14
2023-01-30T06:52:25.625Z,82.69
2023-01-30T06:54:51.953Z,83.22
2023-01-30T06:57:18.365Z,83.14
2023-01-30T06:59:44.747Z,82.84
2023-01-30T07:02:13.042Z,83.30
2023-01-30T07:04:39.669Z,83.21
2023-01-30T07:07:07.137Z,82.69
2023-01-30T07:09:33.599Z,83.37
2023-01-30T07:11:59.970Z,82.89
2023-01-30T07:14:26.344Z,83.17
2023-01-30T07:16:52.777Z,82.47
2023-01-30T07:19:19.200Z,83.03
2023-01-30T07:21:45.631Z,83.29
2023-01-30T07:24:12.146Z,84.10
2023-01-30T07:26:38.565Z,84.97
2023-01-30T07:29:07.844Z,85.61
2023-01-30T07:31:34.232Z,85.33
2023-01-30T07:34:00.613Z,85.71
2023-01-30T07:36:27.042Z,85.49
2023-01-30T07:38:53.431Z,85.75
2023-01-30T07:41:19.964Z,86.02
2023-01-30T07:43:48.799Z,86.02
2023-01-30T07:46:15.189Z,85.84
2023-01-30T07:48:44.646Z,85.32
2023-01-30T07:51:10.998Z,85.90
2023-01-30T07:53:37.511Z,85.72
2023-01-30T07:56:10.876Z,86.18
2023-01-30T07:58:37.295Z,86.36
2023-01-30T08:01:03.718Z,86.68
2023-01-30T08:03:30.130Z,86.39
2023-01-30T08:05:56.723Z,87.96
2023-01-30T08:08:23.057Z,87.76
2023-01-30T08:10:49.548Z,87.45
2023-01-30T08:13:15.948Z,86.99
2023-01-30T08:15:42.383Z,88.04
2023-01-30T08:18:08.810Z,86.91
2023-01-30T08:20:36.149Z,87.17
2023-01-30T08:23:03.089Z,87.72
2023-01-30T08:25:29.635Z,86.78
2023-01-30T08:27:56.151Z,86.98
2023-01-30T08:30:22.996Z,86.62
2023-01-30T08:32:49.469Z,87.37
2023-01-30T08:35:15.921Z,87.07
2023-01-30T08:37:42.730Z,86.51
2023-01-30T08:40:09.869Z,86.39
2023-01-30T08:42:36.230Z,87.04
2023-01-30T08:45:02.666Z,89.64
2023-01-30T08:47:29.156Z,87.18
2023-01-30T08:49:55.651Z,87.62
2023-01-30T08:52:22.153Z,87.43
2023-01-30T08:54:48.702Z,87.53
2023-01-30T08:57:15.557Z,87.49
2023-01-30T08:59:41.949Z,87.44
2023-01-30T09:02:10.337Z,86.73
2023-01-30T09:04:36.744Z,87.10
2023-01-30T09:07:03.394Z,87.13
2023-01-30T09:09:29.943Z,87.19
2023-01-30T09:11:56.303Z,87.29
2023-01-30T09:14:23.003Z,86.63
2023-01-30T09:16:55.703Z,86.66
2023-01-30T09:19:23.603Z,86.85
2023-01-30T09:21:50.948Z,86.28
2023-01-30T09:24:17.446Z,86.07
2023-01-30T09:26:45.173Z,86.05
2023-01-30T09:29:15.104Z,86.50
2023-01-30T09:31:41.601Z,85.48
2023-01-30T09:34:08.017Z,84.49
2023-01-30T09:36:34.435Z,85.24
2023-01-30T09:39:00.893Z,85.12
2023-01-30T09:42:05.781Z,83.84
2023-01-30T09:44:58.024Z,83.86
2023-01-30T09:47:24.321Z,83.86
2023-01-30T09:50:06.424Z,84.13
2023-01-30T09:52:52.168Z,83.75
2023-01-30T09:55:21.493Z,84.13
2023-01-30T09:57:48.912Z,83.78
2023-01-30T10:00:23.373Z,82.48
2023-01-30T10:03:04.837Z,82.47
2023-01-30T10:05:50.415Z,82.33
2023-01-30T10:08:38.643Z,81.18
2023-01-30T10:11:38.744Z,80.80
2023-01-30T10:14:14.178Z,81.79
2023-01-30T10:17:01.240Z,82.59
2023-01-30T10:19:39.513Z,82.93
2023-01-30T10:22:44.388Z,82.68
2023-01-30T10:25:32.887Z,83.49
2023-01-30T10:28:28.297Z,82.52
2023-01-30T10:31:18.790Z,81.16
2023-01-30T10:33:58.033Z,80.63
2023-01-30T10:36:35.388Z,79.67
2023-01-30T10:39:04.489Z,79.12
2023-01-30T10:41:42.582Z,79.82
2023-01-30T10:44:11.252Z,79.71
2023-01-30T10:46:48.718Z,78.86
2023-01-30T10:49:23.022Z,78.55
2023-01-30T10:52:18.913Z,78.93
2023-01-30T10:55:04.054Z,79.03
2023-01-30T10:57:33.388Z,78.36
2023-01-30T11:00:10.393Z,78.17
2023-01-30T11:03:05.983Z,77.69
2023-01-30T11:06:02.124Z,77.29
2023-01-30T11:08:35.850Z,76.94
2023-01-30T11:11:25.019Z,77.19
2023-01-30T11:13:51.530Z,76.49
2023-01-30T11:16:18.336Z,76.05
2023-01-30T11:21:44.081Z,75.87
2023-01-30T11:24:16.884Z,75.08
2023-01-30T11:26:47.733Z,74.64
2023-01-30T11:29:28.932Z,75.60
2023-01-30T11:31:56.042Z,74.09
2023-01-30T11:34:23.802Z,75.75
2023-01-30T11:36:50.715Z,75.69
2023-01-30T11:39:21.025Z,75.87
2023-01-30T11:41:53.432Z,75.97
2023-01-30T11:44:29.228Z,76.11
2023-01-30T11:47:02.670Z,75.98
2023-01-30T11:49:49.277Z,76.51
2023-01-30T11:52:19.307Z,76.64
2023-01-30T11:54:46.075Z,76.02
2023-01-30T11:57:17.231Z,74.91
2023-01-30T12:00:33.806Z,73.39
2023-01-30T12:03:05.191Z,72.33
2023-01-30T12:05:34.556Z,71.56
2023-01-30T12:08:17.486Z,72.56
2023-01-30T12:10:48.869Z,73.27
2023-01-30T12:13:32.077Z,73.65
2023-01-30T12:16:18.625Z,73.90
2023-01-30T12:19:05.474Z,73.40
2023-01-30T12:22:13.897Z,73.59
2023-01-30T12:24:59.120Z,73.29
2023-01-30T12:27:32.520Z,73.76
2023-01-30T12:30:19.252Z,73.87
2023-01-30T12:32:45.946Z,73.28
2023-01-30T12:35:17.709Z,74.22
2023-01-30T12:37:56.743Z,73.27
2023-01-30T12:40:30.302Z,72.22
2023-01-30T12:43:13.894Z,71.11
2023-01-30T12:46:02.299Z,70.83
2023-01-30T12:49:07.840Z,70.76
2023-01-30T12:51:42.404Z,71.82
2023-01-30T12:54:28.838Z,72.34
2023-01-30T12:57:22.605Z,71.81
2023-01-30T12:59:54.830Z,73.12
2023-01-30T13:02:36.629Z,73.06
2023-01-30T13:05:34.123Z,71.95
2023-01-30T13:08:18.618Z,72.49
2023-01-30T13:11:16.132Z,72.55
2023-01-30T13:13:53.423Z,72.34
2023-01-30T13:16:29.542Z,72.78
2023-01-30T13:19:06.737Z,72.61
2023-01-30T13:21:38.052Z,72.77
2023-01-30T13:24:35.864Z,72.98
2023-01-30T13:27:06.257Z,73.37
2023-01-30T13:29:37.768Z,72.78
2023-01-30T13:32:06.657Z,72.92
2023-01-30T13:34:39.827Z,73.59
2023-01-30T13:37:13.503Z,73.77
2023-01-30T13:39:45.052Z,73.31
2023-01-30T13:42:33.313Z,72.63
2023-01-30T13:45:00.487Z,73.26
2023-01-30T13:47:40.972Z,72.51
2023-01-30T13:50:26.999Z,72.49
2023-01-30T13:53:05.374Z,71.82
2023-01-30T13:55:57.047Z,71.82
2023-01-30T13:58:32.167Z,71.98
2023-01-30T14:00:58.672Z,71.21
2023-01-30T14:03:31.396Z,71.71
2023-01-30T14:06:01.061Z,70.61
2023-01-30T14:08:39.861Z,70.47
2023-01-30T14:11:28.967Z,70.52
2023-01-30T14:14:00.660Z,70.80
2023-01-30T14:16:40.475Z,70.68
2023-01-30T14:19:36.102Z,71.08
2023-01-30T14:22:19.134Z,70.69
2023-01-30T14:24:45.596Z,70.67
2023-01-30T14:27:27.353Z,73.11
2023-01-30T14:29:54.744Z,72.67
2023-01-30T14:32:22.288Z,73.34
2023-01-30T14:35:00.661Z,72.99
2023-01-30T14:37:41.614Z,73.34
2023-01-30T14:40:23.374Z,74.39
2023-01-30T14:43:11.689Z,75.44
2023-01-30T14:45:49.879Z,75.00
2023-01-30T14:48:20.996Z,74.31
2023-01-30T14:50:47.494Z,72.61
2023-01-30T14:53:14.420Z,71.83
2023-01-30T14:55:40.862Z,72.20
2023-01-30T14:58:15.359Z,76.34
2023-01-30T15:00:41.788Z,75.74
2023-01-30T15:03:17.060Z,75.76
2023-01-30T15:05:44.672Z,75.78
2023-01-30T15:08:17.030Z,75.14
2023-01-30T15:10:49.409Z,74.29
2023-01-30T15:13:32.443Z,74.43
2023-01-30T15:16:31.142Z,74.58
2023-01-30T15:19:20.807Z,74.19
2023-01-30T15:21:53.196Z,73.88
2023-01-30T15:24:26.843Z,73.40
2023-01-30T15:27:14.963Z,73.12
2023-01-30T15:30:19.151Z,72.91
2023-01-30T15:32:45.713Z,71.78
2023-01-30T15:35:18.736Z,71.39
2023-01-30T15:37:53.060Z,69.10
2023-01-30T15:40:22.226Z,70.37
2023-01-30T15:43:00.624Z,69.03
2023-01-30T15:45:50.245Z,69.83
2023-01-30T15:48:37.614Z,69.66
2023-01-30T15:51:04.598Z,70.05
2023-01-30T15:53:36.414Z,71.36
2023-01-30T15:56:06.895Z,71.41
2023-01-30T15:58:36.447Z,72.45
2023-01-30T16:01:02.958Z,72.63
2023-01-30T16:03:36.554Z,72.43
2023-01-30T16:06:03.860Z,72.28
2023-01-30T16:08:33.138Z,72.72
2023-01-30T16:11:00.737Z,72.57
2023-01-30T16:13:28.474Z,72.37
2023-01-30T16:16:10.409Z,70.27
2023-01-30T16:18:39.105Z,70.63
2023-01-30T16:21:08.424Z,70.94
2023-01-30T16:23:54.551Z,70.76
2023-01-30T16:26:21.980Z,70.92
2023-01-30T16:28:49.798Z,70.70
2023-01-30T16:31:17.622Z,72.00
2023-01-30T16:33:53.424Z,72.38
2023-01-30T16:36:19.776Z,72.66
2023-01-30T16:38:47.403Z,72.54
2023-01-30T16:41:36.421Z,73.03
2023-01-30T16:44:11.854Z,73.49
2023-01-30T16:46:41.160Z,74.02
2023-01-30T16:49:16.910Z,74.28
2023-01-30T16:51:43.382Z,74.52
2023-01-30T16:54:21.714Z,74.23
2023-01-30T16:56:50.968Z,73.97
2023-01-30T16:59:21.138Z,73.81
2023-01-30T17:01:47.862Z,73.15
2023-01-30T17:04:21.269Z,72.96
2023-01-30T17:07:00.680Z,72.29
2023-01-30T17:09:35.567Z,72.14
2023-01-30T17:12:28.123Z,71.61
2023-01-30T17:15:09.748Z,71.69
2023-01-30T17:17:36.067Z,71.25
2023-01-30T17:20:02.625Z,71.60
2023-01-30T17:22:29.033Z,71.43
2023-01-30T17:24:59.436Z,72.24
2023-01-30T17:27:27.388Z,71.56
2023-01-30T17:29:53.845Z,71.74
2023-01-30T17:32:20.619Z,72.00
2023-01-30T17:34:47.443Z,71.97
2023-01-30T17:37:15.977Z,72.29
2023-01-30T17:39:42.364Z,72.27
2023-01-30T17:42:13.112Z,72.98
2023-01-30T17:44:40.197Z,71.45
2023-01-30T17:47:09.116Z,72.06
2023-01-30T17:49:35.441Z,72.22
2023-01-30T17:52:01.821Z,72.04
2023-01-30T17:54:30.065Z,71.72
2023-01-30T17:57:00.155Z,71.56
2023-01-30T17:59:26.939Z,70.75
2023-01-30T18:01:53.878Z,70.78
2023-01-30T18:04:20.933Z,71.79
2023-01-30T18:06:50.462Z,71.08
2023-01-30T18:09:19.397Z,71.19
2023-01-30T18:11:46.217Z,71.10
2023-01-30T18:14:12.596Z,71.28
2023-01-30T18:16:39.015Z,70.93
2023-01-30T18:19:08.558Z,71.19
2023-01-30T18:21:36.405Z,70.72
2023-01-30T18:24:02.846Z,71.15
2023-01-30T18:26:30.011Z,71.19
2023-01-30T18:28:56.874Z,71.74
2023-01-30T18:31:25.093Z,72.24
2023-01-30T18:33:52.328Z,72.66
2023-01-30T18:36:19.830Z,72.58
2023-01-30T18:38:46.418Z,73.11
2023-01-30T18:41:15.437Z,72.45
2023-01-30T18:43:42.642Z,72.29
2023-01-30T18:46:14.743Z,72.49
2023-01-30T18:48:41.780Z,73.33
2023-01-30T18:51:22.665Z,73.84
2023-01-30T18:53:49.712Z,73.05
2023-01-30T18:56:21.377Z,72.56
2023-01-30T18:58:52.336Z,73.40
2023-01-30T19:01:21.071Z,73.25
2023-01-30T19:03:47.687Z,74.08
2023-01-30T19:06:15.441Z,74.37
2023-01-30T19:08:42.028Z,74.30
2023-01-30T19:11:29.419Z,73.94
2023-01-30T19:13:56.193Z,73.83
2023-01-30T19:16:24.501Z,73.76
2023-01-30T19:18:51.128Z,73.37
2023-01-30T19:21:17.773Z,74.63
2023-01-30T19:23:44.557Z,75.08
2023-01-30T19:26:10.965Z,75.70
2023-01-30T19:28:37.957Z,74.67
2023-01-30T19:31:09.240Z,75.58
2023-01-30T19:33:36.175Z,75.88
2023-01-30T19:36:12.878Z,75.97
2023-01-30T19:38:39.990Z,76.44
2023-01-30T19:41:14.219Z,77.00
2023-01-30T19:43:41.599Z,76.90
2023-01-30T19:46:08.615Z,76.45
2023-01-30T19:48:35.101Z,76.61
2023-01-30T19:51:35.830Z,76.76
2023-01-30T19:54:04.956Z,76.65
2023-01-30T19:56:32.153Z,77.27
2023-01-30T19:59:00.205Z,77.18
2023-01-30T20:01:29.389Z,76.74
2023-01-30T20:03:56.413Z,76.46
2023-01-30T20:06:27.819Z,75.97
2023-01-30T20:08:58.180Z,75.26
2023-01-30T20:11:24.700Z,73.54
2023-01-30T20:13:51.547Z,73.75
2023-01-30T20:16:20.533Z,73.74
2023-01-30T20:18:48.316Z,73.23
2023-01-30T20:21:19.100Z,71.80
2023-01-30T20:23:46.811Z,72.36
2023-01-30T20:26:16.657Z,72.52
2023-01-30T20:28:43.494Z,72.83
2023-01-30T20:31:15.722Z,72.53
2023-01-30T20:33:42.668Z,72.76
2023-01-30T20:36:11.434Z,73.03
2023-01-30T20:38:39.416Z,72.37
2023-01-30T20:41:11.237Z,72.69
2023-01-30T20:43:39.687Z,72.54
2023-01-30T20:46:11.908Z,72.58
2023-01-30T20:48:38.643Z,71.74
2023-01-30T20:51:10.034Z,72.07
2023-01-30T20:53:37.232Z,72.16
2023-01-30T20:56:04.787Z,72.46
2023-01-30T20:58:31.465Z,72.24
2023-01-30T21:01:18.021Z,72.60
2023-01-30T21:03:47.836Z,72.70
2023-01-30T21:06:14.280Z,72.18
2023-01-30T21:09:01.194Z,72.36
2023-01-30T21:11:27.784Z,72.89
2023-01-30T21:13:54.244Z,72.83
2023-01-30T21:16:26.428Z,73.45
2023-01-30T21:18:55.087Z,72.77
2023-01-30T21:21:33.157Z,72.59
2023-01-30T21:24:02.899Z,72.23
2023-01-30T21:26:30.770Z,71.93
2023-01-30T21:28:57.713Z,72.05
2023-01-30T21:31:26.650Z,72.22
2023-01-30T21:33:56.039Z,71.70
2023-01-30T21:36:22.541Z,71.98
2023-01-30T21:39:07.380Z,72.34
2023-01-30T21:41:45.675Z,73.26
2023-01-30T21:44:13.089Z,73.81
2023-01-30T21:46:45.248Z,73.35
2023-01-30T21:49:12.131Z,73.91
2023-01-30T21:51:41.655Z,73.41
2023-01-30T21:54:08.296Z,74.05
2023-01-30T21:56:34.887Z,74.29
2023-01-30T21:59:02.636Z,74.31
2023-01-30T22:01:29.968Z,73.81
2023-01-30T22:03:59.237Z,74.33
2023-01-30T22:06:25.693Z,73.93
2023-01-30T22:08:56.287Z,74.09
2023-01-30T22:11:22.719Z,75.00
2023-01-30T22:13:49.340Z,75.13
2023-01-30T22:16:18.023Z,75.51
2023-01-30T22:18:47.293Z,76.30
2023-01-30T22:21:15.707Z,76.10
2023-01-30T22:23:44.606Z,76.48
2023-01-30T22:26:12.877Z,76.25
2023-01-30T22:28:39.704Z,76.66
2023-01-30T22:31:08.148Z,76.45
2023-01-30T22:33:35.023Z,76.80
2023-01-30T22:36:03.282Z,76.83
2023-01-30T22:38:29.751Z,77.57
2023-01-30T22:41:11.652Z,77.67
2023-01-30T22:43:38.346Z,77.45
2023-01-30T22:46:07.063Z,77.77
2023-01-30T22:48:34.432Z,78.19
2023-01-30T22:51:13.128Z,78.46
2023-01-30T22:53:42.156Z,78.66
2023-01-30T22:56:10.999Z,79.21
2023-01-30T22:58:38.170Z,78.95
2023-01-30T23:01:12.092Z,78.90
2023-01-30T23:03:39.435Z,79.02
2023-01-30T23:06:07.759Z,79.78
2023-01-30T23:08:38.143Z,79.76
2023-01-30T23:11:13.455Z,80.19
2023-01-30T23:13:44.671Z,80.34
2023-01-30T23:16:12.184Z,80.43
2023-01-30T23:18:57.187Z,80.42
2023-01-30T23:21:37.058Z,81.25
2023-01-30T23:24:09.486Z,80.59
2023-01-30T23:26:38.215Z,80.76
2023-01-30T23:29:07.644Z,80.33
2023-01-30T23:31:34.707Z,80.43
2023-01-30T23:34:03.932Z,81.60
2023-01-30T23:36:30.481Z,82.45
2023-01-30T23:38:58.719Z,82.06
2023-01-30T23:41:27.420Z,82.16
2023-01-30T23:43:54.237Z,82.78
2023-01-30T23:46:25.310Z,83.16
2023-01-30T23:48:57.040Z,82.33
2023-01-30T23:51:26.686Z,83.01
2023-01-30T23:53:53.480Z,82.25
2023-01-30T23:56:21.951Z,82.27
2023-01-30T23:58:49.822Z,82.67
